createdAt,value
2018-07-13T00:04:07.662Z,15.17
2018-07-13T00:09:12.042Z,11.80
2018-07-13T00:14:17.908Z,9.13
2018-07-13T00:19:21.638Z,9.43
2018-07-13T00:24:24.777Z,10.87
2018-07-13T00:29:27.890Z,9.03
2018-07-13T00:34:31.046Z,9.33
2018-07-13T00:39:35.178Z,10.47
2018-07-13T00:44:38.306Z,9.13
2018-07-13T00:49:41.455Z,11.70
2018-07-13T00:54:44.587Z,8.77
2018-07-13T00:59:47.718Z,11.53
2018-07-13T01:04:50.829Z,10.83
2018-07-13T01:09:53.976Z,8.80
2018-07-13T01:14:57.110Z,9.50
2018-07-13T01:20:00.312Z,12.97
2018-07-13T01:25:03.445Z,14.77
2018-07-13T01:30:06.714Z,10.53
2018-07-13T01:35:09.830Z,12.67
2018-07-13T01:40:13.006Z,13.33
2018-07-13T01:45:16.109Z,14.20
2018-07-13T01:50:19.299Z,12.60
2018-07-13T01:55:22.430Z,10.93
2018-07-13T02:00:25.581Z,15.07
2018-07-13T02:05:28.759Z,12.37
2018-07-13T02:10:31.919Z,14.03
2018-07-13T02:15:35.036Z,13.37
2018-07-13T02:20:38.181Z,11.37
2018-07-13T02:25:41.270Z,10.50
2018-07-13T02:30:44.422Z,10.13
2018-07-13T02:35:47.542Z,12.03
2018-07-13T02:40:50.667Z,8.73
2018-07-13T02:45:53.810Z,12.03
2018-07-13T02:50:56.965Z,9.90
2018-07-13T02:56:00.130Z,13.73
2018-07-13T03:01:03.239Z,15.40
2018-07-13T03:06:06.399Z,11.50
2018-07-13T03:11:09.518Z,9.47
2018-07-13T03:16:13.638Z,16.27
2018-07-13T03:21:16.746Z,17.37
2018-07-13T03:26:19.891Z,13.10
2018-07-13T03:31:23.002Z,12.07
2018-07-13T03:36:26.129Z,15.17
2018-07-13T03:41:29.277Z,18.30
2018-07-13T03:46:32.424Z,19.97
2018-07-13T03:51:35.591Z,18.87
2018-07-13T03:56:38.751Z,15.97
2018-07-13T04:01:41.889Z,20.23
2018-07-13T04:06:45.058Z,15.43
2018-07-13T04:11:48.217Z,17.87
2018-07-13T04:16:51.393Z,16.67
2018-07-13T04:21:54.518Z,18.77
2018-07-13T04:26:57.649Z,19.00
2018-07-13T04:32:00.812Z,16.30
2018-07-13T04:37:03.938Z,12.80
2018-07-13T04:42:07.415Z,12.70
2018-07-13T04:47:10.575Z,14.33
2018-07-13T04:52:13.746Z,12.60
2018-07-13T04:57:16.927Z,16.03
2018-07-13T05:02:20.103Z,22.27
2018-07-13T05:07:23.297Z,15.10
2018-07-13T05:12:26.456Z,16.40
2018-07-13T05:17:29.594Z,12.70
2018-07-13T05:22:32.762Z,14.60
2018-07-13T05:27:35.920Z,17.30
2018-07-13T05:32:39.123Z,14.43
2018-07-13T05:37:42.255Z,15.23
2018-07-13T05:42:45.438Z,16.30
2018-07-13T05:47:48.577Z,15.50
2018-07-13T05:52:51.741Z,14.83
2018-07-13T05:57:54.898Z,15.70
2018-07-13T06:02:58.079Z,18.00
2018-07-13T06:08:01.262Z,14.57
2018-07-13T06:13:04.430Z,18.63
2018-07-13T06:18:07.686Z,16.73
2018-07-13T06:23:10.821Z,17.43
2018-07-13T06:28:13.978Z,17.23
2018-07-13T06:33:17.114Z,16.77
2018-07-13T06:38:20.246Z,14.00
2018-07-13T06:43:23.378Z,19.70
2018-07-13T06:48:26.278Z,17.03
2018-07-13T06:53:29.818Z,15.43
2018-07-13T06:58:44.504Z,18.30
2018-07-13T07:04:54.225Z,20.43
2018-07-13T07:09:59.758Z,15.57
2018-07-13T07:15:02.978Z,18.53
2018-07-13T07:20:06.118Z,14.37
2018-07-13T07:25:09.277Z,11.07
2018-07-13T07:30:12.818Z,13.33
2018-07-13T07:35:16.234Z,11.33
2018-07-13T07:40:19.355Z,11.70
2018-07-13T07:45:22.513Z,10.70
2018-07-13T07:50:25.754Z,15.37
2018-07-13T07:55:29.935Z,13.40
2018-07-13T08:00:33.095Z,13.03
2018-07-13T08:05:36.875Z,16.37
2018-07-13T08:10:40.043Z,31.90
2018-07-13T08:15:45.226Z,13.23
2018-07-13T08:20:48.834Z,19.40
2018-07-13T08:25:51.765Z,17.37
2018-07-13T08:30:57.022Z,11.87
2018-07-13T08:36:00.166Z,15.53
2018-07-13T08:41:03.390Z,14.97
2018-07-13T08:46:06.862Z,23.50
2018-07-13T08:51:10.094Z,18.73
2018-07-13T08:56:14.044Z,18.07
2018-07-13T09:01:17.320Z,13.57
2018-07-13T09:06:20.462Z,14.63
2018-07-13T09:11:24.966Z,14.83
2018-07-13T09:16:28.101Z,16.40
2018-07-13T09:21:31.225Z,12.30
2018-07-13T09:26:34.413Z,13.73
2018-07-13T09:31:37.613Z,13.07
2018-07-13T09:36:40.831Z,12.03
2018-07-13T09:41:44.066Z,12.30
2018-07-13T09:46:47.259Z,13.43
2018-07-13T09:51:50.379Z,9.23
2018-07-13T09:56:53.538Z,8.67
2018-07-13T10:01:56.741Z,7.53
2018-07-13T10:06:59.886Z,8.10
2018-07-13T10:12:03.143Z,9.23
2018-07-13T10:17:06.306Z,8.40
2018-07-13T10:22:11.939Z,7.37
2018-07-13T10:27:15.814Z,9.77
2018-07-13T10:32:18.945Z,7.27
2018-07-13T10:37:25.675Z,9.27
2018-07-13T10:42:29.025Z,5.17
2018-07-13T10:47:32.206Z,9.47
2018-07-13T10:52:35.431Z,5.97
2018-07-13T10:57:38.692Z,8.87
2018-07-13T11:02:41.913Z,7.63
2018-07-13T11:07:45.011Z,4.47
2018-07-13T11:12:48.299Z,7.17
2018-07-13T11:17:51.454Z,5.10
2018-07-13T11:22:54.558Z,5.70
2018-07-13T11:27:57.678Z,5.93
2018-07-13T11:33:00.814Z,3.80
2018-07-13T11:38:03.970Z,6.63
2018-07-13T11:43:06.937Z,7.70
2018-07-13T11:48:10.067Z,4.83
2018-07-13T11:53:13.269Z,6.60
2018-07-13T11:58:16.423Z,5.37
2018-07-13T12:03:19.568Z,5.97
2018-07-13T12:08:23.014Z,2.90
2018-07-13T12:13:26.166Z,3.03
2018-07-13T12:18:29.311Z,2.53
2018-07-13T12:23:32.474Z,2.57
2018-07-13T12:28:35.605Z,3.13
2018-07-13T12:33:38.721Z,5.10
2018-07-13T12:38:41.818Z,2.87
2018-07-13T12:43:45.023Z,3.13
2018-07-13T12:48:48.227Z,6.23
2018-07-13T12:53:51.600Z,6.47
2018-07-13T12:58:57.982Z,3.67
2018-07-13T13:04:01.218Z,3.77
2018-07-13T13:09:04.976Z,4.47
2018-07-13T13:14:08.181Z,4.30
2018-07-13T13:19:11.693Z,4.87
2018-07-13T13:24:15.040Z,4.00
2018-07-13T13:29:18.285Z,4.73
2018-07-13T13:34:21.497Z,4.77
2018-07-13T13:39:25.019Z,4.50
2018-07-13T13:44:28.161Z,3.23
2018-07-13T13:49:31.299Z,3.57
2018-07-13T13:54:34.630Z,4.93
2018-07-13T13:59:37.936Z,4.73
2018-07-13T14:04:43.414Z,4.23
2018-07-13T14:09:46.720Z,4.17
2018-07-13T14:14:49.939Z,6.33
2018-07-13T14:19:53.143Z,4.57
2018-07-13T14:24:56.306Z,4.57
2018-07-13T14:29:59.443Z,4.50
2018-07-13T14:35:02.615Z,3.87
2018-07-13T14:40:05.855Z,3.10
2018-07-13T14:45:08.974Z,3.93
2018-07-13T14:50:12.115Z,4.50
2018-07-13T14:55:15.318Z,4.83
2018-07-13T15:00:18.441Z,4.23
2018-07-13T15:05:21.558Z,4.70
2018-07-13T15:10:24.731Z,2.47
2018-07-13T15:15:27.794Z,3.50
2018-07-13T15:20:30.940Z,3.37
2018-07-13T15:25:34.078Z,3.13
2018-07-13T15:30:37.218Z,4.13
2018-07-13T15:35:40.358Z,3.47
2018-07-13T15:40:43.342Z,3.77
2018-07-13T15:45:46.579Z,2.67
2018-07-13T15:50:49.484Z,2.73
2018-07-13T15:55:56.723Z,5.13
2018-07-13T16:00:59.847Z,3.20
2018-07-13T16:06:03.023Z,3.43
2018-07-13T16:11:06.262Z,3.97
2018-07-13T16:16:09.393Z,4.27
2018-07-13T16:21:13.860Z,3.87
2018-07-13T16:26:18.046Z,2.03
2018-07-13T16:31:21.258Z,4.20
2018-07-13T16:36:24.399Z,2.30
2018-07-13T16:41:27.573Z,3.97
2018-07-13T16:46:31.776Z,2.57
2018-07-13T16:51:35.023Z,4.13
2018-07-13T16:56:38.174Z,3.43
2018-07-13T17:01:41.758Z,1.90
2018-07-13T17:06:45.024Z,2.53
2018-07-13T17:11:48.260Z,2.80
2018-07-13T17:16:51.464Z,4.27
2018-07-13T17:21:54.638Z,3.07
2018-07-13T17:26:57.771Z,3.53
2018-07-13T17:32:01.018Z,5.37
2018-07-13T17:37:04.147Z,4.87
2018-07-13T17:42:07.306Z,2.80
2018-07-13T17:47:11.434Z,4.03
2018-07-13T17:52:14.739Z,7.03
2018-07-13T17:57:17.952Z,3.17
2018-07-13T18:02:21.182Z,3.43
2018-07-13T18:07:24.356Z,4.00
2018-07-13T18:12:27.594Z,5.47
2018-07-13T18:17:30.772Z,3.00
2018-07-13T18:22:34.134Z,3.20
2018-07-13T18:27:37.238Z,3.23
2018-07-13T18:32:40.437Z,2.67
2018-07-13T18:37:43.730Z,3.43
2018-07-13T18:42:46.954Z,3.33
2018-07-13T18:47:50.690Z,3.40
2018-07-13T18:52:53.835Z,6.60
2018-07-13T18:57:56.993Z,5.63
2018-07-13T19:03:00.257Z,10.17
2018-07-13T19:08:03.751Z,5.03
2018-07-13T19:13:06.913Z,3.43
2018-07-13T19:18:10.038Z,5.07
2018-07-13T19:23:13.481Z,3.90
2018-07-13T19:28:16.609Z,5.83
2018-07-13T19:33:19.789Z,3.27
2018-07-13T19:38:22.998Z,4.90
2018-07-13T19:43:26.173Z,4.47
2018-07-13T19:48:29.402Z,3.73
2018-07-13T19:53:32.590Z,3.87
2018-07-13T19:58:35.810Z,5.07
2018-07-13T20:03:38.939Z,5.07
2018-07-13T20:08:43.178Z,5.63
2018-07-13T20:13:46.318Z,4.53
2018-07-13T20:18:49.490Z,6.07
2018-07-13T20:23:52.631Z,6.97
2018-07-13T20:28:55.789Z,7.53
2018-07-13T20:33:58.919Z,7.00
2018-07-13T20:39:02.114Z,6.37
2018-07-13T20:44:05.427Z,3.63
2018-07-13T20:49:08.591Z,5.87
2018-07-13T20:54:11.739Z,7.33
2018-07-13T20:59:14.891Z,13.87
2018-07-13T21:04:18.042Z,13.77
2018-07-13T21:09:21.174Z,15.70
2018-07-13T21:14:24.309Z,11.40
2018-07-13T21:19:27.436Z,35.73
2018-07-13T21:24:30.574Z,26.00
2018-07-13T21:29:33.712Z,38.63
2018-07-13T21:34:36.868Z,25.87
2018-07-13T21:39:39.998Z,19.13
2018-07-13T21:44:43.666Z,14.37
2018-07-13T21:49:46.788Z,7.97
2018-07-13T21:54:49.915Z,6.77
2018-07-13T21:59:53.048Z,8.77
2018-07-13T22:04:56.202Z,5.87
2018-07-13T22:09:59.494Z,7.17
2018-07-13T22:15:02.628Z,10.30
2018-07-13T22:20:05.848Z,7.73
2018-07-13T22:25:08.981Z,8.33
2018-07-13T22:30:12.121Z,7.17
2018-07-13T22:35:15.291Z,10.73
2018-07-13T22:40:18.459Z,7.33
2018-07-13T22:45:21.522Z,6.53
2018-07-13T22:50:24.846Z,7.97
2018-07-13T22:55:27.983Z,5.20
2018-07-13T23:00:31.143Z,8.57
2018-07-13T23:05:34.272Z,6.40
2018-07-13T23:10:37.490Z,7.13
2018-07-13T23:20:50.454Z,6.77
2018-07-13T23:25:53.585Z,9.03
2018-07-13T23:30:56.759Z,7.80
2018-07-13T23:36:00.564Z,10.70
2018-07-13T23:41:03.762Z,7.70
2018-07-13T23:46:06.997Z,8.07
2018-07-13T23:51:10.125Z,9.57
2018-07-13T23:56:13.274Z,7.47
